Island Queen — WDE6981 — position and weather

sailwx.info

Track history (hours):
 
Tides and Currents Weather Stations Pressure Air Temp Water Temp Dewpoint Dewpoint Depression Visibility Wind Speed Wind Dir Waves Ship Positions

Island Queen

Owner: Island Queen Sightseeing Tours Inc., Miami, FL. More information available from US FCC via Universal Licensing System and Coast Guard Vessel Documentation Center.

Last reported at 2018-Jun-22 05:30 UTC. Time now 2018-Jun-22 05:39 UTC.
Position N 25°47' W 080°11'.

Type: Passenger vessel. MMSI: 367387350.

Date/timePositionNaut miles runAvg speedWind from/ knotsBaromVisibWave heightAir tempDewpointWater temp
2018-Jun-22 05:30N 25°47' W 080°11'0 0.0
2018-Jun-22 05:00N 25°47' W 080°11'0 0.0
2018-Jun-22 04:30N 25°47' W 080°11'0 0.0
2018-Jun-22 03:57N 25°47' W 080°11'0 0.0
2018-Jun-22 03:27N 25°47' W 080°11'0 0.0
2018-Jun-22 02:57N 25°47' W 080°11'0 0.0
2018-Jun-22 02:30N 25°47' W 080°11'0 0.0
2018-Jun-22 01:57N 25°47' W 080°11'0 0.0
2018-Jun-22 01:27N 25°47' W 080°11'0 0.0
2018-Jun-22 01:00N 25°47' W 080°11'0 0.0
2018-Jun-22 00:27N 25°47' W 080°11'0 0.0
2018-Jun-21 23:57N 25°47' W 080°11'0 0.0
2018-Jun-21 23:30N 25°47' W 080°11'3 4.9
2018-Jun-21 22:59N 25°46' W 080°09'1 2.3
2018-Jun-21 22:29N 25°47' W 080°09'2 3.4
2018-Jun-21 21:59N 25°47' W 080°11'0 0.1
2018-Jun-21 21:28N 25°47' W 080°11'2 4.9
2018-Jun-21 21:01N 25°46' W 080°09'1 2.0
2018-Jun-21 20:30N 25°47' W 080°09'2 2.9
2018-Jun-21 19:56N 25°47' W 080°11'0 0.0
2018-Jun-21 19:31N 25°47' W 080°11'2 4.7
2018-Jun-21 19:00N 25°46' W 080°09'1 2.5
2018-Jun-21 18:31N 25°47' W 080°09'2 2.4
2018-Jun-21 17:53N 25°47' W 080°11'0 0.0
2018-Jun-21 17:29N 25°47' W 080°11'2 4.8
2018-Jun-21 17:00N 25°46' W 080°09'1 1.7
2018-Jun-21 16:30N 25°47' W 080°09'2 3.1
2018-Jun-21 15:59N 25°47' W 080°11'0 0.3
2018-Jun-21 15:30N 25°47' W 080°11'2 3.9
2018-Jun-21 15:00N 25°47' W 080°09'1 2.3
2018-Jun-21 14:30N 25°47' W 080°10'1 2.4
2018-Jun-21 13:59N 25°47' W 080°11'0 0.0
2018-Jun-21 13:25N 25°47' W 080°11'0 0.0
2018-Jun-21 12:37N 25°47' W 080°11'0 0.0
2018-Jun-21 12:25N 25°47' W 080°11'0 0.0
2018-Jun-21 11:58N 25°47' W 080°11'0 0.0
2018-Jun-21 11:25N 25°47' W 080°11'0 0.0
2018-Jun-21 10:55N 25°47' W 080°11'0 0.0
2018-Jun-21 10:25N 25°47' W 080°11'0 0.0
2018-Jun-21 09:59N 25°47' W 080°11'0 0.0
2018-Jun-21 09:29N 25°47' W 080°11'0 0.0
2018-Jun-21 08:52N 25°47' W 080°11'0 0.0
2018-Jun-21 08:22N 25°47' W 080°11'0 0.0
2018-Jun-21 07:58N 25°47' W 080°11'0 0.0
2018-Jun-21 07:22N 25°47' W 080°11'0 0.0
2018-Jun-21 06:58N 25°47' W 080°11'0 0.0
2018-Jun-21 06:25N 25°47' W 080°11'0 0.0
2018-Jun-21 05:59N 25°47' W 080°11'0 0.0
2018-Jun-21 05:28N 25°47' W 080°11'0 0.0
2018-Jun-21 04:58N 25°47' W 080°11'0 0.0
2018-Jun-21 04:28N 25°47' W 080°11'0 0.0
2018-Jun-21 03:55N 25°47' W 080°11'0 0.0
2018-Jun-21 03:25N 25°47' W 080°11'0 0.0
2018-Jun-21 02:59N 25°47' W 080°11'0 0.0
2018-Jun-21 02:26N 25°47' W 080°11'0 0.0
2018-Jun-21 01:49N 25°47' W 080°11'0 0.0
2018-Jun-21 01:28N 25°47' W 080°11'0 0.0
2018-Jun-21 00:56N 25°47' W 080°11'0 0.0
2018-Jun-21 00:28N 25°47' W 080°11'0 0.0
2018-Jun-20 23:56N 25°47' W 080°11'0 0.0
2018-Jun-20 23:25N 25°47' W 080°11'0 0.0
2018-Jun-20 22:56N 25°47' W 080°11'0 0.0
2018-Jun-20 22:28N 25°47' W 080°11'0 0.0
2018-Jun-20 22:00N 25°47' W 080°11'2 4.4
2018-Jun-20 21:31N 25°46' W 080°09'1 2.4
2018-Jun-20 21:01N 25°47' W 080°10'1 2.9
2018-Jun-20 20:30N 25°47' W 080°11'0 0.0
2018-Jun-20 20:01N 25°47' W 080°11'2 4.3
2018-Jun-20 19:30N 25°46' W 080°09'1 2.3
2018-Jun-20 19:00N 25°47' W 080°10'1 2.8
2018-Jun-20 18:29N 25°47' W 080°11'0 0.0
2018-Jun-20 17:59N 25°47' W 080°11'2 4.2
2018-Jun-20 17:31N 25°46' W 080°09'1 2.0
2018-Jun-20 17:00N 25°47' W 080°10'1 2.5
2018-Jun-20 16:26N 25°47' W 080°11'0 0.0
2018-Jun-20 16:01N 25°47' W 080°11'2 4.8
2018-Jun-20 15:30N 25°46' W 080°09'1 2.2
2018-Jun-20 15:00N 25°47' W 080°09'2 3.1
2018-Jun-20 14:30N 25°47' W 080°11'0 0.0
2018-Jun-20 14:00N 25°47' W 080°11'0 0.0
2018-Jun-20 13:29N 25°47' W 080°11'0 0.0
2018-Jun-20 12:53N 25°47' W 080°11'0 0.0
2018-Jun-20 12:29N 25°47' W 080°11'0 0.0
2018-Jun-20 12:00N 25°47' W 080°11'0 0.0
2018-Jun-20 11:29N 25°47' W 080°11'0 0.0
2018-Jun-20 10:59N 25°47' W 080°11'0 0.0
2018-Jun-20 10:29N 25°47' W 080°11'0 0.0
2018-Jun-20 09:53N 25°47' W 080°11'0 0.0
2018-Jun-20 09:26N 25°47' W 080°11'0 0.0
2018-Jun-20 08:59N 25°47' W 080°11'0 0.0
2018-Jun-20 08:29N 25°47' W 080°11'0 0.0
2018-Jun-20 08:00N 25°47' W 080°11'0 0.0
2018-Jun-20 07:29N 25°47' W 080°11'0 0.0
2018-Jun-20 06:59N 25°47' W 080°11'0 0.0
2018-Jun-20 06:29N 25°47' W 080°11'0 0.0
2018-Jun-20 05:59N 25°47' W 080°11'0 0.0
2018-Jun-20 05:29N 25°47' W 080°11'0 0.0
2018-Jun-20 04:59N 25°47' W 080°11'0 0.0
2018-Jun-20 04:28N 25°47' W 080°11'0 0.0
2018-Jun-20 03:58N 25°47' W 080°11'0 0.0
2018-Jun-20 03:28N 25°47' W 080°11'0 0.0
2018-Jun-20 02:55N 25°47' W 080°11'0 0.0
2018-Jun-20 02:28N 25°47' W 080°11'0 0.0
2018-Jun-20 01:55N 25°47' W 080°11'0 0.0
2018-Jun-20 01:28N 25°47' W 080°11'0 0.0
2018-Jun-20 00:58N 25°47' W 080°11'0 0.9
2018-Jun-20 00:30N 25°47' W 080°11'2 3.2
2018-Jun-20 00:00N 25°47' W 080°09'1 2.4
2018-Jun-19 23:30N 25°46' W 080°10'1 1.3
2018-Jun-19 22:58N 25°47' W 080°11'0 0.0
2018-Jun-19 22:28N 25°47' W 080°11'2 4.4
2018-Jun-19 22:00N 25°46' W 080°09'1 2.0
2018-Jun-19 21:30N 25°47' W 080°10'1 2.3
2018-Jun-19 20:52N 25°47' W 080°11'0 0.0
2018-Jun-19 20:29N 25°47' W 080°11'2 4.6
2018-Jun-19 20:00N 25°46' W 080°09'1 2.1
2018-Jun-19 19:30N 25°47' W 080°09'2 2.8
2018-Jun-19 18:58N 25°47' W 080°11'0 0.0
2018-Jun-19 18:29N 25°47' W 080°11'2 4.5
2018-Jun-19 18:00N 25°46' W 080°09'1 2.2
2018-Jun-19 17:29N 25°47' W 080°09'2 3.1
2018-Jun-19 16:59N 25°47' W 080°11'0 0.0
2018-Jun-19 16:28N 25°47' W 080°11'2 4.8
2018-Jun-19 16:00N 25°46' W 080°09'1 2.4
2018-Jun-19 15:30N 25°47' W 080°10'2 3.0
2018-Jun-19 15:00N 25°47' W 080°11'0 0.0
2018-Jun-19 14:21N 25°47' W 080°11'0 0.0
2018-Jun-19 14:00N 25°47' W 080°11'0 0.0
2018-Jun-19 13:27N 25°47' W 080°11'0 0.0
2018-Jun-19 13:00N 25°47' W 080°11'0 0.0
2018-Jun-19 12:30N 25°47' W 080°11'0 0.2
2018-Jun-19 11:54N 25°47' W 080°11'0 0.2
2018-Jun-19 11:30N 25°47' W 080°11'0 0.3
2018-Jun-19 10:59N 25°47' W 080°11'0 0.0
2018-Jun-19 10:20N 25°47' W 080°11'0 0.0
2018-Jun-19 09:53N 25°47' W 080°11'0 0.0
2018-Jun-19 09:17N 25°47' W 080°11'0 0.0
2018-Jun-19 08:56N 25°47' W 080°11'0 0.0
2018-Jun-19 08:30N 25°47' W 080°11'0 0.0
2018-Jun-19 08:00N 25°47' W 080°11'0 0.0
2018-Jun-19 07:30N 25°47' W 080°11'0 0.0
2018-Jun-19 07:00N 25°47' W 080°11'0 0.0
2018-Jun-19 06:30N 25°47' W 080°11'0 0.0
2018-Jun-19 06:00N 25°47' W 080°11'0 0.0
2018-Jun-19 05:30N 25°47' W 080°11'0 0.0
2018-Jun-19 05:00N 25°47' W 080°11'0 0.0
2018-Jun-19 04:15N 25°47' W 080°11'0 0.0
2018-Jun-19 03:54N 25°47' W 080°11'0 0.0
2018-Jun-19 03:29N 25°47' W 080°11'0 0.0
2018-Jun-19 02:59N 25°47' W 080°11'0 0.0
2018-Jun-19 02:29N 25°47' W 080°11'0 0.0
2018-Jun-19 01:59N 25°47' W 080°11'0 0.0
2018-Jun-19 01:29N 25°47' W 080°11'0 0.0
2018-Jun-19 00:59N 25°47' W 080°11'0 0.9
2018-Jun-19 00:29N 25°46' W 080°11'2 4.8
2018-Jun-19 00:00N 25°46' W 080°09'1 2.8
2018-Jun-18 23:30N 25°47' W 080°10'1 2.8
2018-Jun-18 23:00N 25°47' W 080°11'0 0.0
2018-Jun-18 22:29N 25°47' W 080°11'1 1.9
2018-Jun-18 22:00N 25°46' W 080°10'1 2.3
2018-Jun-18 21:30N 25°47' W 080°10'2 2.7
2018-Jun-18 20:57N 25°47' W 080°11'0 0.0
2018-Jun-18 20:30N 25°47' W 080°11'2 4.9
2018-Jun-18 20:00N 25°46' W 080°09'1 2.6
2018-Jun-18 19:30N 25°47' W 080°09'2 3.1
2018-Jun-18 18:59N 25°47' W 080°11'0 0.0
2018-Jun-18 18:30N 25°47' W 080°11'2 4.1
2018-Jun-18 18:00N 25°46' W 080°09'1 1.9
2018-Jun-18 17:30N 25°47' W 080°09'2 2.6
2018-Jun-18 16:53N 25°47' W 080°11'0 0.0
2018-Jun-18 16:29N 25°47' W 080°11'2 4.8
2018-Jun-18 16:00N 25°46' W 080°09'1 2.1
2018-Jun-18 15:30N 25°47' W 080°09'2 3.2
2018-Jun-18 15:00N 25°47' W 080°11'0 0.0
2018-Jun-18 14:21N 25°47' W 080°11'0 0.0
2018-Jun-18 14:00N 25°47' W 080°11'0 0.0
2018-Jun-18 13:27N 25°47' W 080°11'0 0.0
2018-Jun-18 13:00N 25°47' W 080°11'0 0.0
2018-Jun-18 12:25N 25°47' W 080°11'0 0.0
2018-Jun-18 11:52N 25°47' W 080°11'0 0.0
2018-Jun-18 11:22N 25°47' W 080°11'0 0.0
2018-Jun-18 10:58N 25°47' W 080°11'0 0.0
2018-Jun-18 10:28N 25°47' W 080°11'0 0.0
2018-Jun-18 09:58N 25°47' W 080°11'0 0.0
2018-Jun-18 09:28N 25°47' W 080°11'0 0.0
2018-Jun-18 08:55N 25°47' W 080°11'0 0.0
2018-Jun-18 08:28N 25°47' W 080°11'0 0.0
2018-Jun-18 07:58N 25°47' W 080°11'0 0.0
2018-Jun-18 07:28N 25°47' W 080°11'0 0.0
2018-Jun-18 06:58N 25°47' W 080°11'0 0.0
2018-Jun-18 06:13N 25°47' W 080°11'0 0.0
2018-Jun-18 05:55N 25°47' W 080°11'0 0.0
2018-Jun-18 05:22N 25°47' W 080°11'0 0.0
2018-Jun-18 04:58N 25°47' W 080°11'0 0.0
2018-Jun-18 04:25N 25°47' W 080°11'0 0.0
2018-Jun-18 03:58N 25°47' W 080°11'0 0.0
2018-Jun-18 03:28N 25°47' W 080°11'0 0.0
2018-Jun-18 03:00N 25°47' W 080°11'1 2.3
2018-Jun-18 02:29N 25°46' W 080°10'1 2.5
2018-Jun-18 02:00N 25°47' W 080°11'0 0.2
2018-Jun-18 01:30N 25°47' W 080°11'2 4.0
2018-Jun-18 01:00N 25°47' W 080°09'1 2.7
2018-Jun-18 00:30N 25°47' W 080°10'1 2.2
2018-Jun-18 00:00N 25°47' W 080°11'2 3.9
2018-Jun-17 23:28N 25°46' W 080°09'1 2.0
2018-Jun-17 23:00N 25°47' W 080°09'2 3.2
2018-Jun-17 22:28N 25°47' W 080°11'0 0.0
2018-Jun-17 22:00N 25°47' W 080°11'3 5.0
2018-Jun-17 21:30N 25°46' W 080°08'1 2.3
2018-Jun-17 21:00N 25°47' W 080°09'2 3.3
2018-Jun-17 20:29N 25°47' W 080°11'0 0.1
2018-Jun-17 19:59N 25°47' W 080°11'2 4.8
2018-Jun-17 19:29N 25°46' W 080°09'1 2.4
2018-Jun-17 19:00N 25°47' W 080°09'2 3.2
2018-Jun-17 18:30N 25°47' W 080°11'0 0.0
2018-Jun-17 18:00N 25°47' W 080°11'2 3.1
2018-Jun-17 17:30N 25°47' W 080°09'1 1.7
2018-Jun-17 17:00N 25°46' W 080°10'2 3.3
2018-Jun-17 16:30N 25°47' W 080°11'0 0.1
2018-Jun-17 16:00N 25°47' W 080°11'2 4.3
2018-Jun-17 15:29N 25°46' W 080°09'1 2.3
2018-Jun-17 15:00N 25°47' W 080°10'1 2.7
2018-Jun-17 14:28N 25°47' W 080°11'0 0.0
2018-Jun-17 13:52N 25°47' W 080°11'0 0.0
2018-Jun-17 13:28N 25°47' W 080°11'0 0.0
2018-Jun-17 12:58N 25°47' W 080°11'0 0.0
2018-Jun-17 12:28N 25°47' W 080°11'0 0.0
2018-Jun-17 11:40N 25°47' W 080°11'0 0.0
2018-Jun-17 11:19N 25°47' W 080°11'0 0.0
2018-Jun-17 10:58N 25°47' W 080°11'0 0.0
2018-Jun-17 10:13N 25°47' W 080°11'0 0.0
2018-Jun-17 09:58N 25°47' W 080°11'0 0.0
2018-Jun-17 09:13N 25°47' W 080°11'0 0.0
2018-Jun-17 08:52N 25°47' W 080°11'0 0.0
2018-Jun-17 08:22N 25°47' W 080°11'0 0.0
2018-Jun-17 07:58N 25°47' W 080°11'0 0.0
2018-Jun-17 07:22N 25°47' W 080°11'0 0.0
2018-Jun-17 06:58N 25°47' W 080°11'0 0.0
2018-Jun-17 06:19N 25°47' W 080°11'0 0.0
2018-Jun-17 05:55N 25°47' W 080°11'0 0.0
2018-Jun-17 05:25N 25°47' W 080°11'0 0.0
2018-Jun-17 04:55N 25°47' W 080°11'0 0.0
2018-Jun-17 04:28N 25°47' W 080°11'0 0.0
2018-Jun-17 03:55N 25°47' W 080°11'0 0.0
2018-Jun-17 03:28N 25°47' W 080°11'0 0.0
2018-Jun-17 02:58N 25°47' W 080°11'0 0.0
2018-Jun-17 02:25N 25°47' W 080°11'0 0.0
2018-Jun-17 01:55N 25°47' W 080°11'0 0.0
2018-Jun-17 01:25N 25°47' W 080°11'0 0.0
2018-Jun-17 00:58N 25°47' W 080°11'0 0.0
2018-Jun-17 00:28N 25°47' W 080°11'3 5.8
2018-Jun-16 23:58N 25°44' W 080°11'4 7.7
2018-Jun-16 23:29N 25°40' W 080°10'2 3.4
2018-Jun-16 22:54N 25°40' W 080°12'3 8.3
2018-Jun-16 22:30N 25°43' W 080°11'3 6.4
2018-Jun-16 21:59N 25°47' W 080°11'0 0.0
2018-Jun-16 21:28N 25°47' W 080°11'2 4.3
2018-Jun-16 21:00N 25°46' W 080°09'1 1.9
2018-Jun-16 20:30N 25°47' W 080°09'2 3.3
2018-Jun-16 20:00N 25°47' W 080°11'0 0.0
2018-Jun-16 19:27N 25°47' W 080°11'2 5.3
2018-Jun-16 19:00N 25°46' W 080°09'1 2.2
2018-Jun-16 18:30N 25°47' W 080°09'2 3.1
2018-Jun-16 17:58N 25°47' W 080°11'0 0.0
2018-Jun-16 17:28N 25°47' W 080°11'2 3.7
2018-Jun-16 17:00N 25°46' W 080°09'1 1.7
2018-Jun-16 16:27N 25°47' W 080°10'1 3.2
2018-Jun-16 15:59N 25°47' W 080°11'0 0.0
2018-Jun-16 15:29N 25°47' W 080°11'0 0.0
2018-Jun-16 14:53N 25°47' W 080°11'0 0.0
2018-Jun-16 14:29N 25°47' W 080°11'0 0.0
2018-Jun-16 13:59N 25°47' W 080°11'0 0.0
2018-Jun-16 13:26N 25°47' W 080°11'0 0.0
2018-Jun-16 12:59N 25°47' W 080°11'0 0.0
2018-Jun-16 12:26N 25°47' W 080°11'0 0.0
2018-Jun-16 11:59N 25°47' W 080°11'0 0.0
2018-Jun-16 11:29N 25°47' W 080°11'0 0.0
2018-Jun-16 10:59N 25°47' W 080°11'0 0.0
2018-Jun-16 10:29N 25°47' W 080°11'0 0.0
2018-Jun-16 09:59N 25°47' W 080°11'0 0.0
2018-Jun-16 09:27N 25°47' W 080°11'0 0.0
2018-Jun-16 08:57N 25°47' W 080°11'0 0.0
2018-Jun-16 08:27N 25°47' W 080°11'0 0.0
2018-Jun-16 07:51N 25°47' W 080°11'0 0.0
2018-Jun-16 07:27N 25°47' W 080°11'0 0.0
2018-Jun-16 07:00N 25°47' W 080°11'0 0.0
2018-Jun-16 06:27N 25°47' W 080°11'0 0.0
2018-Jun-16 06:00N 25°47' W 080°11'0 0.0
2018-Jun-16 05:21N 25°47' W 080°11'0 0.0
2018-Jun-16 05:00N 25°47' W 080°11'0 0.0
2018-Jun-16 04:30N 25°47' W 080°11'0 0.0
2018-Jun-16 04:00N 25°47' W 080°11'0 0.0
2018-Jun-16 03:30N 25°47' W 080°11'0 0.0
2018-Jun-16 02:54N 25°47' W 080°11'0 0.0
2018-Jun-16 02:24N 25°47' W 080°11'0 0.0
2018-Jun-16 01:51N 25°47' W 080°11'0 0.0
2018-Jun-16 01:18N 25°47' W 080°11'0 0.0
2018-Jun-16 01:00N 25°47' W 080°11'0 0.0
2018-Jun-16 00:30N 25°47' W 080°11'0 0.0
2018-Jun-16 00:00N 25°47' W 080°11'0 0.0
2018-Jun-15 23:28N 25°47' W 080°11'2 4.9
2018-Jun-15 23:00N 25°46' W 080°09'1 2.4
2018-Jun-15 22:30N 25°47' W 080°10'1 2.8
2018-Jun-15 22:00N 25°47' W 080°11'0 0.0
2018-Jun-15 21:30N 25°47' W 080°11'2 4.6
2018-Jun-15 20:58N 25°46' W 080°09'1 2.2
2018-Jun-15 20:30N 25°47' W 080°09'2 2.5
2018-Jun-15 19:49N 25°47' W 080°11'0 0.0
2018-Jun-15 19:28N 25°47' W 080°11'2 3.7
2018-Jun-15 19:00N 25°47' W 080°09'1 2.2
2018-Jun-15 18:30N 25°46' W 080°09'2 3.3
2018-Jun-15 17:45N 25°47' W 080°11'0 0.1
2018-Jun-15 17:29N 25°47' W 080°11'2 4.0
2018-Jun-15 17:00N 25°46' W 080°09'1 1.8
2018-Jun-15 16:30N 25°47' W 080°09'2 2.7
2018-Jun-15 15:56N 25°47' W 080°11'0 0.0
2018-Jun-15 15:29N 25°47' W 080°11'0 0.0
2018-Jun-15 14:58N 25°47' W 080°11'0 0.0
2018-Jun-15 14:28N 25°47' W 080°11'0 0.0
2018-Jun-15 13:55N 25°47' W 080°11'0 0.0
2018-Jun-15 13:22N 25°47' W 080°11'0 0.0
2018-Jun-15 12:58N 25°47' W 080°11'0 0.0
2018-Jun-15 12:28N 25°47' W 080°11'0 0.0
2018-Jun-15 11:55N 25°47' W 080°11'0 0.0
2018-Jun-15 11:28N 25°47' W 080°11'0 0.0
2018-Jun-15 10:58N 25°47' W 080°11'0 0.0
2018-Jun-15 10:28N 25°47' W 080°11'0 0.0
2018-Jun-15 09:58N 25°47' W 080°11'0 0.0
2018-Jun-15 09:26N 25°47' W 080°11'0 0.0
2018-Jun-15 08:59N 25°47' W 080°11'0 0.0
2018-Jun-15 08:26N 25°47' W 080°11'0 0.0
2018-Jun-15 07:56N 25°47' W 080°11'0 0.0
2018-Jun-15 07:29N 25°47' W 080°11'0 0.0
2018-Jun-15 06:59N 25°47' W 080°11'0 0.0
2018-Jun-15 06:23N 25°47' W 080°11'0 0.0
2018-Jun-15 05:59N 25°47' W 080°11'0 0.0
2018-Jun-15 05:29N 25°47' W 080°11'0 0.0
2018-Jun-15 04:50N 25°47' W 080°11'0 0.0
2018-Jun-15 04:29N 25°47' W 080°11'0 0.0
2018-Jun-15 03:53N 25°47' W 080°11'0 0.0
2018-Jun-15 03:26N 25°47' W 080°11'0 0.0
2018-Jun-15 02:59N 25°47' W 080°11'0 0.0
2018-Jun-15 02:23N 25°47' W 080°11'0 0.0
2018-Jun-15 01:56N 25°47' W 080°11'0 0.0
2018-Jun-15 01:29N 25°47' W 080°11'0 0.0
2018-Jun-15 00:59N 25°47' W 080°11'0 0.0
2018-Jun-15 00:29N 25°47' W 080°11'0 0.0
2018-Jun-14 23:59N 25°47' W 080°11'0 0.0
2018-Jun-14 23:26N 25°47' W 080°11'0 0.0
2018-Jun-14 22:59N 25°47' W 080°11'0 0.0
2018-Jun-14 22:26N 25°47' W 080°11'0 0.0
2018-Jun-14 21:59N 25°47' W 080°11'2 5.2
2018-Jun-14 21:30N 25°46' W 080°08'1 2.2
2018-Jun-14 20:56N 25°47' W 080°09'2 3.8
2018-Jun-14 20:30N 25°47' W 080°11'0 0.0
2018-Jun-14 19:59N 25°47' W 080°11'2 4.6
2018-Jun-14 19:30N 25°46' W 080°09'1 2.3
2018-Jun-14 19:00N 25°47' W 080°10'1 2.4
2018-Jun-14 18:22N 25°47' W 080°11'0 0.0
2018-Jun-14 18:00N 25°47' W 080°11'2 3.1
2018-Jun-14 17:30N 25°47' W 080°09'1 2.3
2018-Jun-14 17:00N 25°46' W 080°09'2 4.4
2018-Jun-14 16:28N 25°47' W 080°11'0 0.0
2018-Jun-14 16:00N 25°47' W 080°11'2 3.7
2018-Jun-14 15:29N 25°46' W 080°09'1 1.7
2018-Jun-14 14:56N 25°47' W 080°09'2 3.8
2018-Jun-14 14:29N 25°47' W 080°11'0 0.0
2018-Jun-14 13:59N 25°47' W 080°11'0 0.0
2018-Jun-14 13:29N 25°47' W 080°11'0 0.0
2018-Jun-14 12:53N 25°47' W 080°11'0 0.0
2018-Jun-14 12:29N 25°47' W 080°11'0 0.0
2018-Jun-14 11:59N 25°47' W 080°11'0 0.0
2018-Jun-14 11:29N 25°47' W 080°11'0 0.0
2018-Jun-14 10:59N 25°47' W 080°11'0 0.0
2018-Jun-14 10:29N 25°47' W 080°11'0 0.0
2018-Jun-14 09:59N 25°47' W 080°11'0 0.0
2018-Jun-14 09:29N 25°47' W 080°11'0 0.0
2018-Jun-14 08:59N 25°47' W 080°11'0 0.0
2018-Jun-14 08:14N 25°47' W 080°11'0 0.0
2018-Jun-14 07:44N 25°47' W 080°11'0 0.0
2018-Jun-14 07:29N 25°47' W 080°11'0 0.0
2018-Jun-14 06:59N 25°47' W 080°11'0 0.0
2018-Jun-14 06:26N 25°47' W 080°11'0 0.0
2018-Jun-14 05:59N 25°47' W 080°11'0 0.0
2018-Jun-14 05:29N 25°47' W 080°11'0 0.0
2018-Jun-14 04:56N 25°47' W 080°11'0 0.0
2018-Jun-14 04:29N 25°47' W 080°11'0 0.0
2018-Jun-14 03:53N 25°47' W 080°11'0 0.0
2018-Jun-14 03:23N 25°47' W 080°11'0 0.0
2018-Jun-14 02:59N 25°47' W 080°11'0 0.0
2018-Jun-14 02:20N 25°47' W 080°11'0 0.0
2018-Jun-14 01:59N 25°47' W 080°11'0 0.0
2018-Jun-14 01:29N 25°47' W 080°11'0 0.0
2018-Jun-14 00:59N 25°47' W 080°11'1 1.1
2018-Jun-14 00:30N 25°46' W 080°11'2 3.1
2018-Jun-14 00:00N 25°47' W 080°09'1 2.7
2018-Jun-13 23:29N 25°47' W 080°11'1 1.6
2018-Jun-13 22:58N 25°47' W 080°11'0 0.0
2018-Jun-13 22:29N 25°47' W 080°11'2 3.1
2018-Jun-13 22:00N 25°47' W 080°10'1 1.9
2018-Jun-13 21:30N 25°46' W 080°09'2 3.3
2018-Jun-13 20:55N 25°47' W 080°11'0 0.0
2018-Jun-13 20:30N 25°47' W 080°11'2 4.5
2018-Jun-13 20:00N 25°46' W 080°09'1 2.1
2018-Jun-13 19:30N 25°47' W 080°10'2 2.8
2018-Jun-13 18:57N 25°47' W 080°11'0 0.0
2018-Jun-13 18:30N 25°47' W 080°11'2 4.8
2018-Jun-13 18:00N 25°46' W 080°09'1 2.4
2018-Jun-13 17:30N 25°47' W 080°10'2 2.9
2018-Jun-13 16:58N 25°47' W 080°11'0 0.0
2018-Jun-13 16:30N 25°47' W 080°11'1 2.9
2018-Jun-13 16:00N 25°47' W 080°10'1 2.2
2018-Jun-13 15:30N 25°46' W 080°09'2 4.4
2018-Jun-13 15:00N 25°47' W 080°11'0 0.0
2018-Jun-13 14:27N 25°47' W 080°11'0 0.0
2018-Jun-13 14:00N 25°47' W 080°11'0 0.0
2018-Jun-13 13:30N 25°47' W 080°11'0 0.0
2018-Jun-13 13:00N 25°47' W 080°11'0 0.0
2018-Jun-13 12:21N 25°47' W 080°11'0 0.0
2018-Jun-13 11:57N 25°47' W 080°11'0 0.0
2018-Jun-13 11:30N 25°47' W 080°11'0 0.0
2018-Jun-13 11:00N 25°47' W 080°11'0 0.0
2018-Jun-13 10:30N 25°47' W 080°11'0 0.0
2018-Jun-13 10:00N 25°47' W 080°11'0 0.0
2018-Jun-13 09:30N 25°47' W 080°11'0 0.0
2018-Jun-13 09:00N 25°47' W 080°11'0 0.0
2018-Jun-13 08:27N 25°47' W 080°11'0 0.0
2018-Jun-13 07:54N 25°47' W 080°11'0 0.0
2018-Jun-13 07:15N 25°47' W 080°11'0 0.0
2018-Jun-13 07:00N 25°47' W 080°11'0 0.0
2018-Jun-13 06:24N 25°47' W 080°11'0 0.0
2018-Jun-13 05:57N 25°47' W 080°11'0 0.0
2018-Jun-13 05:21N 25°47' W 080°11'0 0.0
2018-Jun-13 05:00N 25°47' W 080°11'0 0.0
2018-Jun-13 04:30N 25°47' W 080°11'0 0.0
2018-Jun-13 04:00N 25°47' W 080°11'0 0.0
2018-Jun-13 03:30N 25°47' W 080°11'0 0.0
2018-Jun-13 03:00N 25°47' W 080°11'0 0.0
2018-Jun-13 02:30N 25°47' W 080°11'0 0.0
2018-Jun-13 01:54N 25°47' W 080°11'0 0.0
2018-Jun-13 01:24N 25°47' W 080°11'0 0.0
2018-Jun-13 00:57N 25°47' W 080°11'0 0.1
2018-Jun-13 00:30N 25°47' W 080°11'2 3.8
2018-Jun-12 23:57N 25°47' W 080°09'1 3.0
2018-Jun-12 23:30N 25°47' W 080°10'1 1.9
2018-Jun-12 22:54N 25°47' W 080°11'0 0.0
2018-Jun-12 22:27N 25°47' W 080°11'2 5.0
2018-Jun-12 22:00N 25°46' W 080°09'1 2.4
2018-Jun-12 21:30N 25°47' W 080°10'1 2.0
2018-Jun-12 20:46N 25°47' W 080°11'0 0.0
2018-Jun-12 20:30N 25°47' W 080°11'2 4.8
2018-Jun-12 20:00N 25°46' W 080°09'1 2.0
2018-Jun-12 19:30N 25°47' W 080°09'2 3.3
2018-Jun-12 19:00N 25°47' W 080°11'0 0.0
2018-Jun-12 18:27N 25°47' W 080°11'2 4.7
2018-Jun-12 18:00N 25°46' W 080°09'1 2.2
2018-Jun-12 17:30N 25°47' W 080°09'2 3.2
2018-Jun-12 16:59N 25°47' W 080°11'0 0.0
2018-Jun-12 16:29N 25°47' W 080°11'2 4.1
2018-Jun-12 16:00N 25°46' W 080°09'1 1.9
2018-Jun-12 15:30N 25°47' W 080°10'1 2.9
2018-Jun-12 15:00N 25°47' W 080°11'0 0.0
2018-Jun-12 14:30N 25°47' W 080°11'0 0.0
2018-Jun-12 13:57N 25°47' W 080°11'0 0.0
2018-Jun-12 13:30N 25°47' W 080°11'0 0.0
2018-Jun-12 13:00N 25°47' W 080°11'0 0.0
2018-Jun-12 12:27N 25°47' W 080°11'0 0.0
2018-Jun-12 12:00N 25°47' W 080°11'0 0.3
2018-Jun-12 11:28N 25°47' W 080°11'0 0.4
2018-Jun-12 11:00N 25°47' W 080°11'0 0.0
2018-Jun-12 10:30N 25°47' W 080°11'0 0.0
2018-Jun-12 10:00N 25°47' W 080°11'0 0.0
2018-Jun-12 09:26N 25°47' W 080°11'0 0.0
2018-Jun-12 08:59N 25°47' W 080°11'0 0.0
2018-Jun-12 08:20N 25°47' W 080°11'0 0.0
2018-Jun-12 07:59N 25°47' W 080°11'0 0.0
2018-Jun-12 07:26N 25°47' W 080°11'0 0.0
2018-Jun-12 06:56N 25°47' W 080°11'0 0.0
2018-Jun-12 06:26N 25°47' W 080°11'0 0.0
2018-Jun-12 05:56N 25°47' W 080°11'  
Track history (hours):
 
Tides and Currents Weather Stations Pressure Air Temp Water Temp Dewpoint Dewpoint Depression Visibility Wind Speed Wind Dir Waves Ship Positions

Island Queen

Owner: Island Queen Sightseeing Tours Inc., Miami, FL. More information available from US FCC via Universal Licensing System and Coast Guard Vessel Documentation Center.

Last reported at 2018-Jun-22 05:30 UTC. Time now 2018-Jun-22 05:39 UTC.
Position N 25°47' W 080°11'.

Type: Passenger vessel. MMSI: 367387350.

Date/timePositionNaut miles runAvg speedWind from/ knotsBaromVisibWave heightAir tempDewpointWater temp
2018-Jun-22 05:30N 25°47' W 080°11'0 0.0
2018-Jun-22 05:00N 25°47' W 080°11'0 0.0
2018-Jun-22 04:30N 25°47' W 080°11'0 0.0
2018-Jun-22 03:57N 25°47' W 080°11'0 0.0
2018-Jun-22 03:27N 25°47' W 080°11'0 0.0
2018-Jun-22 02:57N 25°47' W 080°11'0 0.0
2018-Jun-22 02:30N 25°47' W 080°11'0 0.0
2018-Jun-22 01:57N 25°47' W 080°11'0 0.0
2018-Jun-22 01:27N 25°47' W 080°11'0 0.0
2018-Jun-22 01:00N 25°47' W 080°11'0 0.0
2018-Jun-22 00:27N 25°47' W 080°11'0 0.0
2018-Jun-21 23:57N 25°47' W 080°11'0 0.0
2018-Jun-21 23:30N 25°47' W 080°11'3 4.9
2018-Jun-21 22:59N 25°46' W 080°09'1 2.3
2018-Jun-21 22:29N 25°47' W 080°09'2 3.4
2018-Jun-21 21:59N 25°47' W 080°11'0 0.1
2018-Jun-21 21:28N 25°47' W 080°11'2 4.9
2018-Jun-21 21:01N 25°46' W 080°09'1 2.0
2018-Jun-21 20:30N 25°47' W 080°09'2 2.9
2018-Jun-21 19:56N 25°47' W 080°11'0 0.0
2018-Jun-21 19:31N 25°47' W 080°11'2 4.7
2018-Jun-21 19:00N 25°46' W 080°09'1 2.5
2018-Jun-21 18:31N 25°47' W 080°09'2 2.4
2018-Jun-21 17:53N 25°47' W 080°11'0 0.0
2018-Jun-21 17:29N 25°47' W 080°11'2 4.8
2018-Jun-21 17:00N 25°46' W 080°09'1 1.7
2018-Jun-21 16:30N 25°47' W 080°09'2 3.1
2018-Jun-21 15:59N 25°47' W 080°11'0 0.3
2018-Jun-21 15:30N 25°47' W 080°11'2 3.9
2018-Jun-21 15:00N 25°47' W 080°09'1 2.3
2018-Jun-21 14:30N 25°47' W 080°10'1 2.4
2018-Jun-21 13:59N 25°47' W 080°11'0 0.0
2018-Jun-21 13:25N 25°47' W 080°11'0 0.0
2018-Jun-21 12:37N 25°47' W 080°11'0 0.0
2018-Jun-21 12:25N 25°47' W 080°11'0 0.0
2018-Jun-21 11:58N 25°47' W 080°11'0 0.0
2018-Jun-21 11:25N 25°47' W 080°11'0 0.0
2018-Jun-21 10:55N 25°47' W 080°11'0 0.0
2018-Jun-21 10:25N 25°47' W 080°11'0 0.0
2018-Jun-21 09:59N 25°47' W 080°11'0 0.0
2018-Jun-21 09:29N 25°47' W 080°11'0 0.0
2018-Jun-21 08:52N 25°47' W 080°11'0 0.0
2018-Jun-21 08:22N 25°47' W 080°11'0 0.0
2018-Jun-21 07:58N 25°47' W 080°11'0 0.0
2018-Jun-21 07:22N 25°47' W 080°11'0 0.0
2018-Jun-21 06:58N 25°47' W 080°11'0 0.0
2018-Jun-21 06:25N 25°47' W 080°11'0 0.0
2018-Jun-21 05:59N 25°47' W 080°11'0 0.0
2018-Jun-21 05:28N 25°47' W 080°11'0 0.0
2018-Jun-21 04:58N 25°47' W 080°11'0 0.0
2018-Jun-21 04:28N 25°47' W 080°11'0 0.0
2018-Jun-21 03:55N 25°47' W 080°11'0 0.0
2018-Jun-21 03:25N 25°47' W 080°11'0 0.0
2018-Jun-21 02:59N 25°47' W 080°11'0 0.0
2018-Jun-21 02:26N 25°47' W 080°11'0 0.0
2018-Jun-21 01:49N 25°47' W 080°11'0 0.0
2018-Jun-21 01:28N 25°47' W 080°11'0 0.0
2018-Jun-21 00:56N 25°47' W 080°11'0 0.0
2018-Jun-21 00:28N 25°47' W 080°11'0 0.0
2018-Jun-20 23:56N 25°47' W 080°11'0 0.0
2018-Jun-20 23:25N 25°47' W 080°11'0 0.0
2018-Jun-20 22:56N 25°47' W 080°11'0 0.0
2018-Jun-20 22:28N 25°47' W 080°11'0 0.0
2018-Jun-20 22:00N 25°47' W 080°11'2 4.4
2018-Jun-20 21:31N 25°46' W 080°09'1 2.4
2018-Jun-20 21:01N 25°47' W 080°10'1 2.9
2018-Jun-20 20:30N 25°47' W 080°11'0 0.0
2018-Jun-20 20:01N 25°47' W 080°11'2 4.3
2018-Jun-20 19:30N 25°46' W 080°09'1 2.3
2018-Jun-20 19:00N 25°47' W 080°10'1 2.8
2018-Jun-20 18:29N 25°47' W 080°11'0 0.0
2018-Jun-20 17:59N 25°47' W 080°11'2 4.2
2018-Jun-20 17:31N 25°46' W 080°09'1 2.0
2018-Jun-20 17:00N 25°47' W 080°10'1 2.5
2018-Jun-20 16:26N 25°47' W 080°11'0 0.0
2018-Jun-20 16:01N 25°47' W 080°11'2 4.8
2018-Jun-20 15:30N 25°46' W 080°09'1 2.2
2018-Jun-20 15:00N 25°47' W 080°09'2 3.1
2018-Jun-20 14:30N 25°47' W 080°11'0 0.0
2018-Jun-20 14:00N 25°47' W 080°11'0 0.0
2018-Jun-20 13:29N 25°47' W 080°11'0 0.0
2018-Jun-20 12:53N 25°47' W 080°11'0 0.0
2018-Jun-20 12:29N 25°47' W 080°11'0 0.0
2018-Jun-20 12:00N 25°47' W 080°11'0 0.0
2018-Jun-20 11:29N 25°47' W 080°11'0 0.0
2018-Jun-20 10:59N 25°47' W 080°11'0 0.0
2018-Jun-20 10:29N 25°47' W 080°11'0 0.0
2018-Jun-20 09:53N 25°47' W 080°11'0 0.0
2018-Jun-20 09:26N 25°47' W 080°11'0 0.0
2018-Jun-20 08:59N 25°47' W 080°11'0 0.0
2018-Jun-20 08:29N 25°47' W 080°11'0 0.0
2018-Jun-20 08:00N 25°47' W 080°11'0 0.0
2018-Jun-20 07:29N 25°47' W 080°11'0 0.0
2018-Jun-20 06:59N 25°47' W 080°11'0 0.0
2018-Jun-20 06:29N 25°47' W 080°11'0 0.0
2018-Jun-20 05:59N 25°47' W 080°11'0 0.0
2018-Jun-20 05:29N 25°47' W 080°11'0 0.0
2018-Jun-20 04:59N 25°47' W 080°11'0 0.0
2018-Jun-20 04:28N 25°47' W 080°11'0 0.0
2018-Jun-20 03:58N 25°47' W 080°11'0 0.0
2018-Jun-20 03:28N 25°47' W 080°11'0 0.0
2018-Jun-20 02:55N 25°47' W 080°11'0 0.0
2018-Jun-20 02:28N 25°47' W 080°11'0 0.0
2018-Jun-20 01:55N 25°47' W 080°11'0 0.0
2018-Jun-20 01:28N 25°47' W 080°11'0 0.0
2018-Jun-20 00:58N 25°47' W 080°11'0 0.9
2018-Jun-20 00:30N 25°47' W 080°11'2 3.2
2018-Jun-20 00:00N 25°47' W 080°09'1 2.4
2018-Jun-19 23:30N 25°46' W 080°10'1 1.3
2018-Jun-19 22:58N 25°47' W 080°11'0 0.0
2018-Jun-19 22:28N 25°47' W 080°11'2 4.4
2018-Jun-19 22:00N 25°46' W 080°09'1 2.0
2018-Jun-19 21:30N 25°47' W 080°10'1 2.3
2018-Jun-19 20:52N 25°47' W 080°11'0 0.0
2018-Jun-19 20:29N 25°47' W 080°11'2 4.6
2018-Jun-19 20:00N 25°46' W 080°09'1 2.1
2018-Jun-19 19:30N 25°47' W 080°09'2 2.8
2018-Jun-19 18:58N 25°47' W 080°11'0 0.0
2018-Jun-19 18:29N 25°47' W 080°11'2 4.5
2018-Jun-19 18:00N 25°46' W 080°09'1 2.2
2018-Jun-19 17:29N 25°47' W 080°09'2 3.1
2018-Jun-19 16:59N 25°47' W 080°11'0 0.0
2018-Jun-19 16:28N 25°47' W 080°11'2 4.8
2018-Jun-19 16:00N 25°46' W 080°09'1 2.4
2018-Jun-19 15:30N 25°47' W 080°10'2 3.0
2018-Jun-19 15:00N 25°47' W 080°11'0 0.0
2018-Jun-19 14:21N 25°47' W 080°11'0 0.0
2018-Jun-19 14:00N 25°47' W 080°11'0 0.0
2018-Jun-19 13:27N 25°47' W 080°11'0 0.0
2018-Jun-19 13:00N 25°47' W 080°11'0 0.0
2018-Jun-19 12:30N 25°47' W 080°11'0 0.2
2018-Jun-19 11:54N 25°47' W 080°11'0 0.2
2018-Jun-19 11:30N 25°47' W 080°11'0 0.3
2018-Jun-19 10:59N 25°47' W 080°11'0 0.0
2018-Jun-19 10:20N 25°47' W 080°11'0 0.0
2018-Jun-19 09:53N 25°47' W 080°11'0 0.0
2018-Jun-19 09:17N 25°47' W 080°11'0 0.0
2018-Jun-19 08:56N 25°47' W 080°11'0 0.0
2018-Jun-19 08:30N 25°47' W 080°11'0 0.0
2018-Jun-19 08:00N 25°47' W 080°11'0 0.0
2018-Jun-19 07:30N 25°47' W 080°11'0 0.0
2018-Jun-19 07:00N 25°47' W 080°11'0 0.0
2018-Jun-19 06:30N 25°47' W 080°11'0 0.0
2018-Jun-19 06:00N 25°47' W 080°11'0 0.0
2018-Jun-19 05:30N 25°47' W 080°11'0 0.0
2018-Jun-19 05:00N 25°47' W 080°11'0 0.0
2018-Jun-19 04:15N 25°47' W 080°11'0 0.0
2018-Jun-19 03:54N 25°47' W 080°11'0 0.0
2018-Jun-19 03:29N 25°47' W 080°11'0 0.0
2018-Jun-19 02:59N 25°47' W 080°11'0 0.0
2018-Jun-19 02:29N 25°47' W 080°11'0 0.0
2018-Jun-19 01:59N 25°47' W 080°11'0 0.0
2018-Jun-19 01:29N 25°47' W 080°11'0 0.0
2018-Jun-19 00:59N 25°47' W 080°11'0 0.9
2018-Jun-19 00:29N 25°46' W 080°11'2 4.8
2018-Jun-19 00:00N 25°46' W 080°09'1 2.8
2018-Jun-18 23:30N 25°47' W 080°10'1 2.8
2018-Jun-18 23:00N 25°47' W 080°11'0 0.0
2018-Jun-18 22:29N 25°47' W 080°11'1 1.9
2018-Jun-18 22:00N 25°46' W 080°10'1 2.3
2018-Jun-18 21:30N 25°47' W 080°10'2 2.7
2018-Jun-18 20:57N 25°47' W 080°11'0 0.0
2018-Jun-18 20:30N 25°47' W 080°11'2 4.9
2018-Jun-18 20:00N 25°46' W 080°09'1 2.6
2018-Jun-18 19:30N 25°47' W 080°09'2 3.1
2018-Jun-18 18:59N 25°47' W 080°11'0 0.0
2018-Jun-18 18:30N 25°47' W 080°11'2 4.1
2018-Jun-18 18:00N 25°46' W 080°09'1 1.9
2018-Jun-18 17:30N 25°47' W 080°09'2 2.6
2018-Jun-18 16:53N 25°47' W 080°11'0 0.0
2018-Jun-18 16:29N 25°47' W 080°11'2 4.8
2018-Jun-18 16:00N 25°46' W 080°09'1 2.1
2018-Jun-18 15:30N 25°47' W 080°09'2 3.2
2018-Jun-18 15:00N 25°47' W 080°11'0 0.0
2018-Jun-18 14:21N 25°47' W 080°11'0 0.0
2018-Jun-18 14:00N 25°47' W 080°11'0 0.0
2018-Jun-18 13:27N 25°47' W 080°11'0 0.0
2018-Jun-18 13:00N 25°47' W 080°11'0 0.0
2018-Jun-18 12:25N 25°47' W 080°11'0 0.0
2018-Jun-18 11:52N 25°47' W 080°11'0 0.0
2018-Jun-18 11:22N 25°47' W 080°11'0 0.0
2018-Jun-18 10:58N 25°47' W 080°11'0 0.0
2018-Jun-18 10:28N 25°47' W 080°11'0 0.0
2018-Jun-18 09:58N 25°47' W 080°11'0 0.0
2018-Jun-18 09:28N 25°47' W 080°11'0 0.0
2018-Jun-18 08:55N 25°47' W 080°11'0 0.0
2018-Jun-18 08:28N 25°47' W 080°11'0 0.0
2018-Jun-18 07:58N 25°47' W 080°11'0 0.0
2018-Jun-18 07:28N 25°47' W 080°11'0 0.0
2018-Jun-18 06:58N 25°47' W 080°11'0 0.0
2018-Jun-18 06:13N 25°47' W 080°11'0 0.0
2018-Jun-18 05:55N 25°47' W 080°11'0 0.0
2018-Jun-18 05:22N 25°47' W 080°11'0 0.0
2018-Jun-18 04:58N 25°47' W 080°11'0 0.0
2018-Jun-18 04:25N 25°47' W 080°11'0 0.0
2018-Jun-18 03:58N 25°47' W 080°11'0 0.0
2018-Jun-18 03:28N 25°47' W 080°11'0 0.0
2018-Jun-18 03:00N 25°47' W 080°11'1 2.3
2018-Jun-18 02:29N 25°46' W 080°10'1 2.5
2018-Jun-18 02:00N 25°47' W 080°11'0 0.2
2018-Jun-18 01:30N 25°47' W 080°11'2 4.0
2018-Jun-18 01:00N 25°47' W 080°09'1 2.7
2018-Jun-18 00:30N 25°47' W 080°10'1 2.2
2018-Jun-18 00:00N 25°47' W 080°11'2 3.9
2018-Jun-17 23:28N 25°46' W 080°09'1 2.0
2018-Jun-17 23:00N 25°47' W 080°09'2 3.2
2018-Jun-17 22:28N 25°47' W 080°11'0 0.0
2018-Jun-17 22:00N 25°47' W 080°11'3 5.0
2018-Jun-17 21:30N 25°46' W 080°08'1 2.3
2018-Jun-17 21:00N 25°47' W 080°09'2 3.3
2018-Jun-17 20:29N 25°47' W 080°11'0 0.1
2018-Jun-17 19:59N 25°47' W 080°11'2 4.8
2018-Jun-17 19:29N 25°46' W 080°09'1 2.4
2018-Jun-17 19:00N 25°47' W 080°09'2 3.2
2018-Jun-17 18:30N 25°47' W 080°11'0 0.0
2018-Jun-17 18:00N 25°47' W 080°11'2 3.1
2018-Jun-17 17:30N 25°47' W 080°09'1 1.7
2018-Jun-17 17:00N 25°46' W 080°10'2 3.3
2018-Jun-17 16:30N 25°47' W 080°11'0 0.1
2018-Jun-17 16:00N 25°47' W 080°11'2 4.3
2018-Jun-17 15:29N 25°46' W 080°09'1 2.3
2018-Jun-17 15:00N 25°47' W 080°10'1 2.7
2018-Jun-17 14:28N 25°47' W 080°11'0 0.0
2018-Jun-17 13:52N 25°47' W 080°11'0 0.0
2018-Jun-17 13:28N 25°47' W 080°11'0 0.0
2018-Jun-17 12:58N 25°47' W 080°11'0 0.0
2018-Jun-17 12:28N 25°47' W 080°11'0 0.0
2018-Jun-17 11:40N 25°47' W 080°11'0 0.0
2018-Jun-17 11:19N 25°47' W 080°11'0 0.0
2018-Jun-17 10:58N 25°47' W 080°11'0 0.0
2018-Jun-17 10:13N 25°47' W 080°11'0 0.0
2018-Jun-17 09:58N 25°47' W 080°11'0 0.0
2018-Jun-17 09:13N 25°47' W 080°11'0 0.0
2018-Jun-17 08:52N 25°47' W 080°11'0 0.0
2018-Jun-17 08:22N 25°47' W 080°11'0 0.0
2018-Jun-17 07:58N 25°47' W 080°11'0 0.0
2018-Jun-17 07:22N 25°47' W 080°11'0 0.0
2018-Jun-17 06:58N 25°47' W 080°11'0 0.0
2018-Jun-17 06:19N 25°47' W 080°11'0 0.0
2018-Jun-17 05:55N 25°47' W 080°11'0 0.0
2018-Jun-17 05:25N 25°47' W 080°11'0 0.0
2018-Jun-17 04:55N 25°47' W 080°11'0 0.0
2018-Jun-17 04:28N 25°47' W 080°11'0 0.0
2018-Jun-17 03:55N 25°47' W 080°11'0 0.0
2018-Jun-17 03:28N 25°47' W 080°11'0 0.0
2018-Jun-17 02:58N 25°47' W 080°11'0 0.0
2018-Jun-17 02:25N 25°47' W 080°11'0 0.0
2018-Jun-17 01:55N 25°47' W 080°11'0 0.0
2018-Jun-17 01:25N 25°47' W 080°11'0 0.0
2018-Jun-17 00:58N 25°47' W 080°11'0 0.0
2018-Jun-17 00:28N 25°47' W 080°11'3 5.8
2018-Jun-16 23:58N 25°44' W 080°11'4 7.7
2018-Jun-16 23:29N 25°40' W 080°10'2 3.4
2018-Jun-16 22:54N 25°40' W 080°12'3 8.3
2018-Jun-16 22:30N 25°43' W 080°11'3 6.4
2018-Jun-16 21:59N 25°47' W 080°11'0 0.0
2018-Jun-16 21:28N 25°47' W 080°11'2 4.3
2018-Jun-16 21:00N 25°46' W 080°09'1 1.9
2018-Jun-16 20:30N 25°47' W 080°09'2 3.3
2018-Jun-16 20:00N 25°47' W 080°11'0 0.0
2018-Jun-16 19:27N 25°47' W 080°11'2 5.3
2018-Jun-16 19:00N 25°46' W 080°09'1 2.2
2018-Jun-16 18:30N 25°47' W 080°09'2 3.1
2018-Jun-16 17:58N 25°47' W 080°11'0 0.0
2018-Jun-16 17:28N 25°47' W 080°11'2 3.7
2018-Jun-16 17:00N 25°46' W 080°09'1 1.7
2018-Jun-16 16:27N 25°47' W 080°10'1 3.2
2018-Jun-16 15:59N 25°47' W 080°11'0 0.0
2018-Jun-16 15:29N 25°47' W 080°11'0 0.0
2018-Jun-16 14:53N 25°47' W 080°11'0 0.0
2018-Jun-16 14:29N 25°47' W 080°11'0 0.0
2018-Jun-16 13:59N 25°47' W 080°11'0 0.0
2018-Jun-16 13:26N 25°47' W 080°11'0 0.0
2018-Jun-16 12:59N 25°47' W 080°11'0 0.0
2018-Jun-16 12:26N 25°47' W 080°11'0 0.0
2018-Jun-16 11:59N 25°47' W 080°11'0 0.0
2018-Jun-16 11:29N 25°47' W 080°11'0 0.0
2018-Jun-16 10:59N 25°47' W 080°11'0 0.0
2018-Jun-16 10:29N 25°47' W 080°11'0 0.0
2018-Jun-16 09:59N 25°47' W 080°11'0 0.0
2018-Jun-16 09:27N 25°47' W 080°11'0 0.0
2018-Jun-16 08:57N 25°47' W 080°11'0 0.0
2018-Jun-16 08:27N 25°47' W 080°11'0 0.0
2018-Jun-16 07:51N 25°47' W 080°11'0 0.0
2018-Jun-16 07:27N 25°47' W 080°11'0 0.0
2018-Jun-16 07:00N 25°47' W 080°11'0 0.0
2018-Jun-16 06:27N 25°47' W 080°11'0 0.0
2018-Jun-16 06:00N 25°47' W 080°11'0 0.0
2018-Jun-16 05:21N 25°47' W 080°11'0 0.0
2018-Jun-16 05:00N 25°47' W 080°11'0 0.0
2018-Jun-16 04:30N 25°47' W 080°11'0 0.0
2018-Jun-16 04:00N 25°47' W 080°11'0 0.0
2018-Jun-16 03:30N 25°47' W 080°11'0 0.0
2018-Jun-16 02:54N 25°47' W 080°11'0 0.0
2018-Jun-16 02:24N 25°47' W 080°11'0 0.0
2018-Jun-16 01:51N 25°47' W 080°11'0 0.0
2018-Jun-16 01:18N 25°47' W 080°11'0 0.0
2018-Jun-16 01:00N 25°47' W 080°11'0 0.0
2018-Jun-16 00:30N 25°47' W 080°11'0 0.0
2018-Jun-16 00:00N 25°47' W 080°11'0 0.0
2018-Jun-15 23:28N 25°47' W 080°11'2 4.9
2018-Jun-15 23:00N 25°46' W 080°09'1 2.4
2018-Jun-15 22:30N 25°47' W 080°10'1 2.8
2018-Jun-15 22:00N 25°47' W 080°11'0 0.0
2018-Jun-15 21:30N 25°47' W 080°11'2 4.6
2018-Jun-15 20:58N 25°46' W 080°09'1 2.2
2018-Jun-15 20:30N 25°47' W 080°09'2 2.5
2018-Jun-15 19:49N 25°47' W 080°11'0 0.0
2018-Jun-15 19:28N 25°47' W 080°11'2 3.7
2018-Jun-15 19:00N 25°47' W 080°09'1 2.2
2018-Jun-15 18:30N 25°46' W 080°09'2 3.3
2018-Jun-15 17:45N 25°47' W 080°11'0 0.1
2018-Jun-15 17:29N 25°47' W 080°11'2 4.0
2018-Jun-15 17:00N 25°46' W 080°09'1 1.8
2018-Jun-15 16:30N 25°47' W 080°09'2 2.7
2018-Jun-15 15:56N 25°47' W 080°11'0 0.0
2018-Jun-15 15:29N 25°47' W 080°11'0 0.0
2018-Jun-15 14:58N 25°47' W 080°11'0 0.0
2018-Jun-15 14:28N 25°47' W 080°11'0 0.0
2018-Jun-15 13:55N 25°47' W 080°11'0 0.0
2018-Jun-15 13:22N 25°47' W 080°11'0 0.0
2018-Jun-15 12:58N 25°47' W 080°11'0 0.0
2018-Jun-15 12:28N 25°47' W 080°11'0 0.0
2018-Jun-15 11:55N 25°47' W 080°11'0 0.0
2018-Jun-15 11:28N 25°47' W 080°11'0 0.0
2018-Jun-15 10:58N 25°47' W 080°11'0 0.0
2018-Jun-15 10:28N 25°47' W 080°11'0 0.0
2018-Jun-15 09:58N 25°47' W 080°11'0 0.0
2018-Jun-15 09:26N 25°47' W 080°11'0 0.0
2018-Jun-15 08:59N 25°47' W 080°11'0 0.0
2018-Jun-15 08:26N 25°47' W 080°11'0 0.0
2018-Jun-15 07:56N 25°47' W 080°11'0 0.0
2018-Jun-15 07:29N 25°47' W 080°11'0 0.0
2018-Jun-15 06:59N 25°47' W 080°11'0 0.0
2018-Jun-15 06:23N 25°47' W 080°11'0 0.0
2018-Jun-15 05:59N 25°47' W 080°11'0 0.0
2018-Jun-15 05:29N 25°47' W 080°11'0 0.0
2018-Jun-15 04:50N 25°47' W 080°11'0 0.0
2018-Jun-15 04:29N 25°47' W 080°11'0 0.0
2018-Jun-15 03:53N 25°47' W 080°11'0 0.0
2018-Jun-15 03:26N 25°47' W 080°11'0 0.0
2018-Jun-15 02:59N 25°47' W 080°11'0 0.0
2018-Jun-15 02:23N 25°47' W 080°11'0 0.0
2018-Jun-15 01:56N 25°47' W 080°11'0 0.0
2018-Jun-15 01:29N 25°47' W 080°11'0 0.0
2018-Jun-15 00:59N 25°47' W 080°11'0 0.0
2018-Jun-15 00:29N 25°47' W 080°11'0 0.0
2018-Jun-14 23:59N 25°47' W 080°11'0 0.0
2018-Jun-14 23:26N 25°47' W 080°11'0 0.0
2018-Jun-14 22:59N 25°47' W 080°11'0 0.0
2018-Jun-14 22:26N 25°47' W 080°11'0 0.0
2018-Jun-14 21:59N 25°47' W 080°11'2 5.2
2018-Jun-14 21:30N 25°46' W 080°08'1 2.2
2018-Jun-14 20:56N 25°47' W 080°09'2 3.8
2018-Jun-14 20:30N 25°47' W 080°11'0 0.0
2018-Jun-14 19:59N 25°47' W 080°11'2 4.6
2018-Jun-14 19:30N 25°46' W 080°09'1 2.3
2018-Jun-14 19:00N 25°47' W 080°10'1 2.4
2018-Jun-14 18:22N 25°47' W 080°11'0 0.0
2018-Jun-14 18:00N 25°47' W 080°11'2 3.1
2018-Jun-14 17:30N 25°47' W 080°09'1 2.3
2018-Jun-14 17:00N 25°46' W 080°09'2 4.4
2018-Jun-14 16:28N 25°47' W 080°11'0 0.0
2018-Jun-14 16:00N 25°47' W 080°11'2 3.7
2018-Jun-14 15:29N 25°46' W 080°09'1 1.7
2018-Jun-14 14:56N 25°47' W 080°09'2 3.8
2018-Jun-14 14:29N 25°47' W 080°11'0 0.0
2018-Jun-14 13:59N 25°47' W 080°11'0 0.0
2018-Jun-14 13:29N 25°47' W 080°11'0 0.0
2018-Jun-14 12:53N 25°47' W 080°11'0 0.0
2018-Jun-14 12:29N 25°47' W 080°11'0 0.0
2018-Jun-14 11:59N 25°47' W 080°11'0 0.0
2018-Jun-14 11:29N 25°47' W 080°11'0 0.0
2018-Jun-14 10:59N 25°47' W 080°11'0 0.0
2018-Jun-14 10:29N 25°47' W 080°11'0 0.0
2018-Jun-14 09:59N 25°47' W 080°11'0 0.0
2018-Jun-14 09:29N 25°47' W 080°11'0 0.0
2018-Jun-14 08:59N 25°47' W 080°11'0 0.0
2018-Jun-14 08:14N 25°47' W 080°11'0 0.0
2018-Jun-14 07:44N 25°47' W 080°11'0 0.0
2018-Jun-14 07:29N 25°47' W 080°11'0 0.0
2018-Jun-14 06:59N 25°47' W 080°11'0 0.0
2018-Jun-14 06:26N 25°47' W 080°11'0 0.0
2018-Jun-14 05:59N 25°47' W 080°11'0 0.0
2018-Jun-14 05:29N 25°47' W 080°11'0 0.0
2018-Jun-14 04:56N 25°47' W 080°11'0 0.0
2018-Jun-14 04:29N 25°47' W 080°11'0 0.0
2018-Jun-14 03:53N 25°47' W 080°11'0 0.0
2018-Jun-14 03:23N 25°47' W 080°11'0 0.0
2018-Jun-14 02:59N 25°47' W 080°11'0 0.0
2018-Jun-14 02:20N 25°47' W 080°11'0 0.0
2018-Jun-14 01:59N 25°47' W 080°11'0 0.0
2018-Jun-14 01:29N 25°47' W 080°11'0 0.0
2018-Jun-14 00:59N 25°47' W 080°11'1 1.1
2018-Jun-14 00:30N 25°46' W 080°11'2 3.1
2018-Jun-14 00:00N 25°47' W 080°09'1 2.7
2018-Jun-13 23:29N 25°47' W 080°11'1 1.6
2018-Jun-13 22:58N 25°47' W 080°11'0 0.0
2018-Jun-13 22:29N 25°47' W 080°11'2 3.1
2018-Jun-13 22:00N 25°47' W 080°10'1 1.9
2018-Jun-13 21:30N 25°46' W 080°09'2 3.3
2018-Jun-13 20:55N 25°47' W 080°11'0 0.0
2018-Jun-13 20:30N 25°47' W 080°11'2 4.5
2018-Jun-13 20:00N 25°46' W 080°09'1 2.1
2018-Jun-13 19:30N 25°47' W 080°10'2 2.8
2018-Jun-13 18:57N 25°47' W 080°11'0 0.0
2018-Jun-13 18:30N 25°47' W 080°11'2 4.8
2018-Jun-13 18:00N 25°46' W 080°09'1 2.4
2018-Jun-13 17:30N 25°47' W 080°10'2 2.9
2018-Jun-13 16:58N 25°47' W 080°11'0 0.0
2018-Jun-13 16:30N 25°47' W 080°11'1 2.9
2018-Jun-13 16:00N 25°47' W 080°10'1 2.2
2018-Jun-13 15:30N 25°46' W 080°09'2 4.4
2018-Jun-13 15:00N 25°47' W 080°11'0 0.0
2018-Jun-13 14:27N 25°47' W 080°11'0 0.0
2018-Jun-13 14:00N 25°47' W 080°11'0 0.0
2018-Jun-13 13:30N 25°47' W 080°11'0 0.0
2018-Jun-13 13:00N 25°47' W 080°11'0 0.0
2018-Jun-13 12:21N 25°47' W 080°11'0 0.0
2018-Jun-13 11:57N 25°47' W 080°11'0 0.0
2018-Jun-13 11:30N 25°47' W 080°11'0 0.0
2018-Jun-13 11:00N 25°47' W 080°11'0 0.0
2018-Jun-13 10:30N 25°47' W 080°11'0 0.0
2018-Jun-13 10:00N 25°47' W 080°11'0 0.0
2018-Jun-13 09:30N 25°47' W 080°11'0 0.0
2018-Jun-13 09:00N 25°47' W 080°11'0 0.0
2018-Jun-13 08:27N 25°47' W 080°11'0 0.0
2018-Jun-13 07:54N 25°47' W 080°11'0 0.0
2018-Jun-13 07:15N 25°47' W 080°11'0 0.0
2018-Jun-13 07:00N 25°47' W 080°11'0 0.0
2018-Jun-13 06:24N 25°47' W 080°11'0 0.0
2018-Jun-13 05:57N 25°47' W 080°11'0 0.0
2018-Jun-13 05:21N 25°47' W 080°11'0 0.0
2018-Jun-13 05:00N 25°47' W 080°11'0 0.0
2018-Jun-13 04:30N 25°47' W 080°11'0 0.0
2018-Jun-13 04:00N 25°47' W 080°11'0 0.0
2018-Jun-13 03:30N 25°47' W 080°11'0 0.0
2018-Jun-13 03:00N 25°47' W 080°11'0 0.0
2018-Jun-13 02:30N 25°47' W 080°11'0 0.0
2018-Jun-13 01:54N 25°47' W 080°11'0 0.0
2018-Jun-13 01:24N 25°47' W 080°11'0 0.0
2018-Jun-13 00:57N 25°47' W 080°11'0 0.1
2018-Jun-13 00:30N 25°47' W 080°11'2 3.8
2018-Jun-12 23:57N 25°47' W 080°09'1 3.0
2018-Jun-12 23:30N 25°47' W 080°10'1 1.9
2018-Jun-12 22:54N 25°47' W 080°11'0 0.0
2018-Jun-12 22:27N 25°47' W 080°11'2 5.0
2018-Jun-12 22:00N 25°46' W 080°09'1 2.4
2018-Jun-12 21:30N 25°47' W 080°10'1 2.0
2018-Jun-12 20:46N 25°47' W 080°11'0 0.0
2018-Jun-12 20:30N 25°47' W 080°11'2 4.8
2018-Jun-12 20:00N 25°46' W 080°09'1 2.0
2018-Jun-12 19:30N 25°47' W 080°09'2 3.3
2018-Jun-12 19:00N 25°47' W 080°11'0 0.0
2018-Jun-12 18:27N 25°47' W 080°11'2 4.7
2018-Jun-12 18:00N 25°46' W 080°09'1 2.2
2018-Jun-12 17:30N 25°47' W 080°09'2 3.2
2018-Jun-12 16:59N 25°47' W 080°11'0 0.0
2018-Jun-12 16:29N 25°47' W 080°11'2 4.1
2018-Jun-12 16:00N 25°46' W 080°09'1 1.9
2018-Jun-12 15:30N 25°47' W 080°10'1 2.9
2018-Jun-12 15:00N 25°47' W 080°11'0 0.0
2018-Jun-12 14:30N 25°47' W 080°11'0 0.0
2018-Jun-12 13:57N 25°47' W 080°11'0 0.0
2018-Jun-12 13:30N 25°47' W 080°11'0 0.0
2018-Jun-12 13:00N 25°47' W 080°11'0 0.0
2018-Jun-12 12:27N 25°47' W 080°11'0 0.0
2018-Jun-12 12:00N 25°47' W 080°11'0 0.3
2018-Jun-12 11:28N 25°47' W 080°11'0 0.4
2018-Jun-12 11:00N 25°47' W 080°11'0 0.0
2018-Jun-12 10:30N 25°47' W 080°11'0 0.0
2018-Jun-12 10:00N 25°47' W 080°11'0 0.0
2018-Jun-12 09:26N 25°47' W 080°11'0 0.0
2018-Jun-12 08:59N 25°47' W 080°11'0 0.0
2018-Jun-12 08:20N 25°47' W 080°11'0 0.0
2018-Jun-12 07:59N 25°47' W 080°11'0 0.0
2018-Jun-12 07:26N 25°47' W 080°11'0 0.0
2018-Jun-12 06:56N 25°47' W 080°11'0 0.0
2018-Jun-12 06:26N 25°47' W 080°11'0 0.0
2018-Jun-12 05:56N 25°47' W 080°11'  

Dump ship's entire track history